sensor_id;sensor_type;location;lat;lon;timestamp;temperature;humidity
34766;DHT22;20984;43.508;1.504;2022-09-14T00:01:41;21.90;99.90
34766;DHT22;20984;43.508;1.504;2022-09-14T00:04:17;21.80;99.90
34766;DHT22;20984;43.508;1.504;2022-09-14T00:06:44;21.80;99.90
34766;DHT22;20984;43.508;1.504;2022-09-14T00:09:20;21.70;99.90
34766;DHT22;20984;43.508;1.504;2022-09-14T00:11:47;21.70;99.90
34766;DHT22;20984;43.508;1.504;2022-09-14T00:14:14;21.60;99.90
34766;DHT22;20984;43.508;1.504;2022-09-14T00:16:41;21.60;99.90
34766;DHT22;20984;43.508;1.504;2022-09-14T00:19:23;21.60;99.90
34766;DHT22;20984;43.508;1.504;2022-09-14T00:21:55;21.60;99.90
34766;DHT22;20984;43.508;1.504;2022-09-14T00:24:23;21.50;99.90
34766;DHT22;20984;43.508;1.504;2022-09-14T00:26:50;21.50;99.90
34766;DHT22;20984;43.508;1.504;2022-09-14T00:29:16;21.40;99.90
34766;DHT22;20984;43.508;1.504;2022-09-14T00:31:42;21.30;99.90
34766;DHT22;20984;43.508;1.504;2022-09-14T00:34:11;21.40;99.90
34766;DHT22;20984;43.508;1.504;2022-09-14T00:36:39;21.40;99.90
34766;DHT22;20984;43.508;1.504;2022-09-14T00:39:06;21.50;99.90
34766;DHT22;20984;43.508;1.504;2022-09-14T00:41:34;21.50;99.90
34766;DHT22;20984;43.508;1.504;2022-09-14T00:46:41;21.60;99.90
34766;DHT22;20984;43.508;1.504;2022-09-14T00:49:23;21.60;99.90
34766;DHT22;20984;43.508;1.504;2022-09-14T00:51:57;21.60;99.90
34766;DHT22;20984;43.508;1.504;2022-09-14T00:54:24;21.70;99.90
34766;DHT22;20984;43.508;1.504;2022-09-14T00:56:50;21.70;99.90
34766;DHT22;20984;43.508;1.504;2022-09-14T00:59:23;21.70;99.90
34766;DHT22;20984;43.508;1.504;2022-09-14T01:01:50;21.70;99.90
34766;DHT22;20984;43.508;1.504;2022-09-14T01:04:16;21.70;99.90
34766;DHT22;20984;43.508;1.504;2022-09-14T01:06:47;21.70;99.90
34766;DHT22;20984;43.508;1.504;2022-09-14T01:09:34;21.80;99.90
34766;DHT22;20984;43.508;1.504;2022-09-14T01:12:25;21.80;99.90
34766;DHT22;20984;43.508;1.504;2022-09-14T01:15:02;21.90;99.90
34766;DHT22;20984;43.508;1.504;2022-09-14T01:20:43;21.90;99.90
34766;DHT22;20984;43.508;1.504;2022-09-14T01:29:16;21.60;99.90
34766;DHT22;20984;43.508;1.504;2022-09-14T01:37:49;21.50;99.90
34766;DHT22;20984;43.508;1.504;2022-09-14T01:40:31;21.50;99.90
34766;DHT22;20984;43.508;1.504;2022-09-14T01:43:09;21.50;99.90
34766;DHT22;20984;43.508;1.504;2022-09-14T01:45:43;21.40;99.90
34766;DHT22;20984;43.508;1.504;2022-09-14T01:48:10;21.40;99.90
34766;DHT22;20984;43.508;1.504;2022-09-14T01:50:40;21.30;99.90
34766;DHT22;20984;43.508;1.504;2022-09-14T01:53:22;21.30;99.90
34766;DHT22;20984;43.508;1.504;2022-09-14T01:56:07;21.30;99.90
34766;DHT22;20984;43.508;1.504;2022-09-14T01:58:39;21.30;99.90
34766;DHT22;20984;43.508;1.504;2022-09-14T02:01:09;21.30;99.90
34766;DHT22;20984;43.508;1.504;2022-09-14T02:03:46;21.40;99.90
34766;DHT22;20984;43.508;1.504;2022-09-14T02:06:27;21.50;99.90
34766;DHT22;20984;43.508;1.504;2022-09-14T02:08:54;21.50;99.90
34766;DHT22;20984;43.508;1.504;2022-09-14T02:11:20;21.50;99.90
34766;DHT22;20984;43.508;1.504;2022-09-14T02:13:46;21.60;99.90
34766;DHT22;20984;43.508;1.504;2022-09-14T02:16:12;21.50;99.90
34766;DHT22;20984;43.508;1.504;2022-09-14T02:18:39;21.60;99.90
34766;DHT22;20984;43.508;1.504;2022-09-14T02:21:13;21.60;99.90
34766;DHT22;20984;43.508;1.504;2022-09-14T02:23:40;21.60;99.90
34766;DHT22;20984;43.508;1.504;2022-09-14T02:26:06;21.60;99.90
34766;DHT22;20984;43.508;1.504;2022-09-14T02:28:32;21.70;99.90
34766;DHT22;20984;43.508;1.504;2022-09-14T02:34:16;21.70;99.90
34766;DHT22;20984;43.508;1.504;2022-09-14T02:42:33;21.70;99.90
34766;DHT22;20984;43.508;1.504;2022-09-14T02:45:15;21.70;99.90
34766;DHT22;20984;43.508;1.504;2022-09-14T02:50:28;21.70;99.90
34766;DHT22;20984;43.508;1.504;2022-09-14T02:53:04;21.60;99.90
34766;DHT22;20984;43.508;1.504;2022-09-14T02:55:36;21.60;99.90
34766;DHT22;20984;43.508;1.504;2022-09-14T02:58:08;21.50;99.90
34766;DHT22;20984;43.508;1.504;2022-09-14T03:00:37;21.50;99.90
34766;DHT22;20984;43.508;1.504;2022-09-14T03:03:05;21.40;99.90
34766;DHT22;20984;43.508;1.504;2022-09-14T03:05:31;21.40;99.90
34766;DHT22;20984;43.508;1.504;2022-09-14T03:07:58;21.40;99.90
34766;DHT22;20984;43.508;1.504;2022-09-14T03:10:24;21.40;99.90
34766;DHT22;20984;43.508;1.504;2022-09-14T03:12:50;21.40;99.90
34766;DHT22;20984;43.508;1.504;2022-09-14T03:15:15;21.40;99.90
34766;DHT22;20984;43.508;1.504;2022-09-14T03:17:48;21.30;99.90
34766;DHT22;20984;43.508;1.504;2022-09-14T03:20:16;21.30;99.90
34766;DHT22;20984;43.508;1.504;2022-09-14T03:22:42;21.30;99.90
34766;DHT22;20984;43.508;1.504;2022-09-14T03:25:08;21.30;99.90
34766;DHT22;20984;43.508;1.504;2022-09-14T03:27:34;21.20;99.90
34766;DHT22;20984;43.508;1.504;2022-09-14T03:30:00;21.30;99.90
34766;DHT22;20984;43.508;1.504;2022-09-14T03:32:25;21.20;99.90
34766;DHT22;20984;43.508;1.504;2022-09-14T03:34:51;21.30;99.90
34766;DHT22;20984;43.508;1.504;2022-09-14T03:37:17;21.20;99.90
34766;DHT22;20984;43.508;1.504;2022-09-14T03:39:43;21.20;99.90
34766;DHT22;20984;43.508;1.504;2022-09-14T03:42:09;21.20;99.90
34766;DHT22;20984;43.508;1.504;2022-09-14T03:44:35;21.30;99.90
34766;DHT22;20984;43.508;1.504;2022-09-14T03:47:01;21.20;99.90
34766;DHT22;20984;43.508;1.504;2022-09-14T03:49:26;21.20;99.90
34766;DHT22;20984;43.508;1.504;2022-09-14T03:51:52;21.10;99.90
34766;DHT22;20984;43.508;1.504;2022-09-14T03:54:18;21.20;99.90
34766;DHT22;20984;43.508;1.504;2022-09-14T03:56:44;21.10;99.90
34766;DHT22;20984;43.508;1.504;2022-09-14T03:59:10;21.00;99.90
34766;DHT22;20984;43.508;1.504;2022-09-14T04:01:37;21.00;99.90
34766;DHT22;20984;43.508;1.504;2022-09-14T04:04:03;20.90;99.90
34766;DHT22;20984;43.508;1.504;2022-09-14T04:06:29;20.90;99.90
34766;DHT22;20984;43.508;1.504;2022-09-14T04:08:54;20.90;99.90
34766;DHT22;20984;43.508;1.504;2022-09-14T04:11:23;20.80;99.90
34766;DHT22;20984;43.508;1.504;2022-09-14T04:13:50;20.80;99.90
34766;DHT22;20984;43.508;1.504;2022-09-14T04:16:17;20.80;99.90
34766;DHT22;20984;43.508;1.504;2022-09-14T04:18:45;20.80;99.90
34766;DHT22;20984;43.508;1.504;2022-09-14T04:21:20;20.70;99.90
34766;DHT22;20984;43.508;1.504;2022-09-14T04:23:47;20.70;99.90
34766;DHT22;20984;43.508;1.504;2022-09-14T04:26:15;20.60;99.90
34766;DHT22;20984;43.508;1.504;2022-09-14T04:28:42;20.50;99.90
34766;DHT22;20984;43.508;1.504;2022-09-14T04:31:09;20.50;99.90
34766;DHT22;20984;43.508;1.504;2022-09-14T04:33:36;20.40;99.90
34766;DHT22;20984;43.508;1.504;2022-09-14T04:36:08;20.30;99.90
34766;DHT22;20984;43.508;1.504;2022-09-14T04:38:36;20.30;99.90
34766;DHT22;20984;43.508;1.504;2022-09-14T04:41:14;20.20;99.90
34766;DHT22;20984;43.508;1.504;2022-09-14T04:43:40;20.20;99.90
34766;DHT22;20984;43.508;1.504;2022-09-14T04:46:10;20.10;99.90
34766;DHT22;20984;43.508;1.504;2022-09-14T04:48:36;20.10;99.90
34766;DHT22;20984;43.508;1.504;2022-09-14T04:51:03;20.10;99.90
34766;DHT22;20984;43.508;1.504;2022-09-14T04:53:29;20.00;99.90
34766;DHT22;20984;43.508;1.504;2022-09-14T04:56:05;19.90;99.90
34766;DHT22;20984;43.508;1.504;2022-09-14T04:58:32;19.90;99.90
34766;DHT22;20984;43.508;1.504;2022-09-14T05:01:02;19.80;99.90
34766;DHT22;20984;43.508;1.504;2022-09-14T05:03:28;19.70;99.90
34766;DHT22;20984;43.508;1.504;2022-09-14T05:05:55;19.70;99.90
34766;DHT22;20984;43.508;1.504;2022-09-14T05:08:20;19.60;99.90
34766;DHT22;20984;43.508;1.504;2022-09-14T05:10:46;19.60;99.90
34766;DHT22;20984;43.508;1.504;2022-09-14T05:13:12;19.60;99.90
34766;DHT22;20984;43.508;1.504;2022-09-14T05:15:39;19.60;99.90
34766;DHT22;20984;43.508;1.504;2022-09-14T05:18:07;19.60;99.90
34766;DHT22;20984;43.508;1.504;2022-09-14T05:20:33;19.60;99.90
34766;DHT22;20984;43.508;1.504;2022-09-14T05:22:59;19.50;99.90
34766;DHT22;20984;43.508;1.504;2022-09-14T05:25:25;19.50;99.90
34766;DHT22;20984;43.508;1.504;2022-09-14T05:27:51;19.40;99.90
34766;DHT22;20984;43.508;1.504;2022-09-14T05:30:17;19.40;99.90
34766;DHT22;20984;43.508;1.504;2022-09-14T05:32:43;19.40;99.90
34766;DHT22;20984;43.508;1.504;2022-09-14T05:35:08;19.40;99.90
34766;DHT22;20984;43.508;1.504;2022-09-14T05:37:34;19.30;99.90
34766;DHT22;20984;43.508;1.504;2022-09-14T05:40:00;19.30;99.90
34766;DHT22;20984;43.508;1.504;2022-09-14T05:42:26;19.30;99.90
34766;DHT22;20984;43.508;1.504;2022-09-14T05:44:52;19.30;99.90
34766;DHT22;20984;43.508;1.504;2022-09-14T05:47:17;19.30;99.90
34766;DHT22;20984;43.508;1.504;2022-09-14T05:49:43;19.30;99.90
34766;DHT22;20984;43.508;1.504;2022-09-14T05:52:09;19.30;99.90
34766;DHT22;20984;43.508;1.504;2022-09-14T05:54:35;19.20;99.90
34766;DHT22;20984;43.508;1.504;2022-09-14T05:57:01;19.20;99.90
34766;DHT22;20984;43.508;1.504;2022-09-14T05:59:26;19.30;99.90
34766;DHT22;20984;43.508;1.504;2022-09-14T06:01:56;19.30;99.90
34766;DHT22;20984;43.508;1.504;2022-09-14T06:04:23;19.30;99.90
34766;DHT22;20984;43.508;1.504;2022-09-14T06:06:48;19.30;99.90
34766;DHT22;20984;43.508;1.504;2022-09-14T06:09:14;19.30;99.90
34766;DHT22;20984;43.508;1.504;2022-09-14T06:11:41;19.30;99.90
34766;DHT22;20984;43.508;1.504;2022-09-14T06:14:07;19.30;99.90
34766;DHT22;20984;43.508;1.504;2022-09-14T06:16:33;19.40;99.90
34766;DHT22;20984;43.508;1.504;2022-09-14T06:18:59;19.40;99.90
34766;DHT22;20984;43.508;1.504;2022-09-14T06:21:32;19.50;99.90
34766;DHT22;20984;43.508;1.504;2022-09-14T06:24:02;19.60;99.90
34766;DHT22;20984;43.508;1.504;2022-09-14T06:26:28;19.70;99.90
34766;DHT22;20984;43.508;1.504;2022-09-14T06:28:54;19.90;99.90
34766;DHT22;20984;43.508;1.504;2022-09-14T06:31:20;20.00;99.90
34766;DHT22;20984;43.508;1.504;2022-09-14T06:33:50;20.00;99.90
34766;DHT22;20984;43.508;1.504;2022-09-14T06:36:19;20.10;99.90
34766;DHT22;20984;43.508;1.504;2022-09-14T06:38:46;20.20;99.90
34766;DHT22;20984;43.508;1.504;2022-09-14T06:41:15;20.30;99.90
34766;DHT22;20984;43.508;1.504;2022-09-14T06:43:45;20.40;99.90
34766;DHT22;20984;43.508;1.504;2022-09-14T06:46:17;20.40;99.90
34766;DHT22;20984;43.508;1.504;2022-09-14T06:48:55;20.40;99.90
34766;DHT22;20984;43.508;1.504;2022-09-14T06:51:36;20.40;99.90
34766;DHT22;20984;43.508;1.504;2022-09-14T06:54:03;20.50;99.90
34766;DHT22;20984;43.508;1.504;2022-09-14T06:56:36;20.60;99.90
34766;DHT22;20984;43.508;1.504;2022-09-14T06:59:03;20.50;99.90
34766;DHT22;20984;43.508;1.504;2022-09-14T07:01:29;20.60;99.90
34766;DHT22;20984;43.508;1.504;2022-09-14T07:03:55;20.70;99.90
34766;DHT22;20984;43.508;1.504;2022-09-14T07:06:27;20.70;99.90
34766;DHT22;20984;43.508;1.504;2022-09-14T07:08:54;20.80;99.90
34766;DHT22;20984;43.508;1.504;2022-09-14T07:11:26;20.80;99.90
34766;DHT22;20984;43.508;1.504;2022-09-14T07:13:53;20.80;99.90
34766;DHT22;20984;43.508;1.504;2022-09-14T07:16:21;20.90;99.90
34766;DHT22;20984;43.508;1.504;2022-09-14T07:18:55;20.80;99.90
34766;DHT22;20984;43.508;1.504;2022-09-14T07:21:22;20.90;99.90
34766;DHT22;20984;43.508;1.504;2022-09-14T07:23:48;20.90;99.90
34766;DHT22;20984;43.508;1.504;2022-09-14T07:28:46;21.00;99.90
34766;DHT22;20984;43.508;1.504;2022-09-14T07:31:16;21.20;99.90
34766;DHT22;20984;43.508;1.504;2022-09-14T07:33:42;21.40;99.90
34766;DHT22;20984;43.508;1.504;2022-09-14T07:36:09;21.50;99.90
34766;DHT22;20984;43.508;1.504;2022-09-14T07:38:35;21.70;99.90
34766;DHT22;20984;43.508;1.504;2022-09-14T07:41:01;21.70;99.90
34766;DHT22;20984;43.508;1.504;2022-09-14T07:43:28;21.90;99.90
34766;DHT22;20984;43.508;1.504;2022-09-14T07:45:53;22.00;99.90
34766;DHT22;20984;43.508;1.504;2022-09-14T07:48:19;22.00;99.90
34766;DHT22;20984;43.508;1.504;2022-09-14T07:50:46;22.10;99.90
34766;DHT22;20984;43.508;1.504;2022-09-14T07:53:12;22.20;99.90
34766;DHT22;20984;43.508;1.504;2022-09-14T07:55:39;22.30;99.90
34766;DHT22;20984;43.508;1.504;2022-09-14T07:58:06;22.30;99.90
34766;DHT22;20984;43.508;1.504;2022-09-14T08:00:32;22.40;99.90
34766;DHT22;20984;43.508;1.504;2022-09-14T08:02:58;22.30;99.90
34766;DHT22;20984;43.508;1.504;2022-09-14T08:05:25;22.30;99.90
34766;DHT22;20984;43.508;1.504;2022-09-14T08:07:57;22.30;99.90
34766;DHT22;20984;43.508;1.504;2022-09-14T08:10:23;22.30;99.90
34766;DHT22;20984;43.508;1.504;2022-09-14T08:12:54;22.40;99.90
34766;DHT22;20984;43.508;1.504;2022-09-14T08:15:21;22.40;99.90
34766;DHT22;20984;43.508;1.504;2022-09-14T08:17:47;22.40;99.90
34766;DHT22;20984;43.508;1.504;2022-09-14T08:20:14;22.40;99.90
34766;DHT22;20984;43.508;1.504;2022-09-14T08:22:44;22.40;99.90
34766;DHT22;20984;43.508;1.504;2022-09-14T08:25:11;22.40;99.90
34766;DHT22;20984;43.508;1.504;2022-09-14T08:27:37;22.40;99.90
34766;DHT22;20984;43.508;1.504;2022-09-14T08:30:04;22.50;99.90
34766;DHT22;20984;43.508;1.504;2022-09-14T08:32:30;22.60;99.90
34766;DHT22;20984;43.508;1.504;2022-09-14T08:34:56;22.70;99.90
34766;DHT22;20984;43.508;1.504;2022-09-14T08:37:22;22.70;99.90
34766;DHT22;20984;43.508;1.504;2022-09-14T08:39:48;22.80;99.90
34766;DHT22;20984;43.508;1.504;2022-09-14T08:42:17;23.00;99.90
34766;DHT22;20984;43.508;1.504;2022-09-14T08:44:50;23.00;99.90
34766;DHT22;20984;43.508;1.504;2022-09-14T08:47:26;23.10;99.90
34766;DHT22;20984;43.508;1.504;2022-09-14T08:52:47;23.40;99.90
34766;DHT22;20984;43.508;1.504;2022-09-14T08:55:16;23.70;99.90
34766;DHT22;20984;43.508;1.504;2022-09-14T08:57:50;23.90;99.90
34766;DHT22;20984;43.508;1.504;2022-09-14T09:00:24;24.20;99.90
34766;DHT22;20984;43.508;1.504;2022-09-14T09:05:57;24.70;99.90
34766;DHT22;20984;43.508;1.504;2022-09-14T09:11:12;25.10;99.90
34766;DHT22;20984;43.508;1.504;2022-09-14T09:13:39;25.10;99.90
34766;DHT22;20984;43.508;1.504;2022-09-14T09:16:09;25.30;99.90
34766;DHT22;20984;43.508;1.504;2022-09-14T09:18:44;25.40;99.90
34766;DHT22;20984;43.508;1.504;2022-09-14T09:23:47;25.40;99.90
34766;DHT22;20984;43.508;1.504;2022-09-14T09:26:26;25.50;99.90
34766;DHT22;20984;43.508;1.504;2022-09-14T09:28:55;25.50;99.90
34766;DHT22;20984;43.508;1.504;2022-09-14T09:31:43;25.40;99.90
34766;DHT22;20984;43.508;1.504;2022-09-14T09:34:16;25.50;99.90
34766;DHT22;20984;43.508;1.504;2022-09-14T09:36:46;25.30;99.90
34766;DHT22;20984;43.508;1.504;2022-09-14T09:39:13;25.50;99.90
34766;DHT22;20984;43.508;1.504;2022-09-14T09:41:59;25.60;99.90
34766;DHT22;20984;43.508;1.504;2022-09-14T09:44:26;25.50;99.90
34766;DHT22;20984;43.508;1.504;2022-09-14T09:46:55;25.50;99.90
34766;DHT22;20984;43.508;1.504;2022-09-14T09:52:26;25.30;99.90
34766;DHT22;20984;43.508;1.504;2022-09-14T09:54:54;25.10;99.90
34766;DHT22;20984;43.508;1.504;2022-09-14T09:57:34;25.00;99.90
34766;DHT22;20984;43.508;1.504;2022-09-14T10:00:27;25.00;99.90
34766;DHT22;20984;43.508;1.504;2022-09-14T10:02:55;25.00;99.90
34766;DHT22;20984;43.508;1.504;2022-09-14T10:05:28;25.10;99.90
34766;DHT22;20984;43.508;1.504;2022-09-14T10:08:01;25.30;99.90
34766;DHT22;20984;43.508;1.504;2022-09-14T10:13:23;25.90;99.90
34766;DHT22;20984;43.508;1.504;2022-09-14T10:15:50;26.10;99.90
34766;DHT22;20984;43.508;1.504;2022-09-14T10:18:17;26.20;99.90
34766;DHT22;20984;43.508;1.504;2022-09-14T10:21:04;26.40;99.90
34766;DHT22;20984;43.508;1.504;2022-09-14T10:23:34;26.50;99.90
34766;DHT22;20984;43.508;1.504;2022-09-14T10:26:17;26.50;99.90
34766;DHT22;20984;43.508;1.504;2022-09-14T10:28:48;26.60;99.90
34766;DHT22;20984;43.508;1.504;2022-09-14T10:33:40;27.20;99.90
34766;DHT22;20984;43.508;1.504;2022-09-14T10:38:51;27.00;99.90
34766;DHT22;20984;43.508;1.504;2022-09-14T10:50:19;26.60;99.90
34766;DHT22;20984;43.508;1.504;2022-09-14T10:56:17;26.30;99.90
34766;DHT22;20984;43.508;1.504;2022-09-14T11:04:35;26.00;99.90
34766;DHT22;20984;43.508;1.504;2022-09-14T11:07:19;26.00;99.90
34766;DHT22;20984;43.508;1.504;2022-09-14T11:10:09;26.10;99.90
34766;DHT22;20984;43.508;1.504;2022-09-14T11:15:43;26.30;99.90
34766;DHT22;20984;43.508;1.504;2022-09-14T11:18:20;26.30;99.90
34766;DHT22;20984;43.508;1.504;2022-09-14T11:23:51;26.30;99.90
34766;DHT22;20984;43.508;1.504;2022-09-14T11:29:17;26.40;99.90
34766;DHT22;20984;43.508;1.504;2022-09-14T11:31:53;26.50;99.90
34766;DHT22;20984;43.508;1.504;2022-09-14T11:37:08;26.60;99.90
34766;DHT22;20984;43.508;1.504;2022-09-14T11:39:42;26.60;99.90
34766;DHT22;20984;43.508;1.504;2022-09-14T11:42:41;26.70;99.90
34766;DHT22;20984;43.508;1.504;2022-09-14T11:45:36;26.70;99.90
34766;DHT22;20984;43.508;1.504;2022-09-14T11:51:02;26.60;99.90
34766;DHT22;20984;43.508;1.504;2022-09-14T11:53:30;26.80;99.90
34766;DHT22;20984;43.508;1.504;2022-09-14T11:55:57;27.00;99.90
34766;DHT22;20984;43.508;1.504;2022-09-14T11:58:26;27.10;99.90
34766;DHT22;20984;43.508;1.504;2022-09-14T12:11:57;27.40;99.90
34766;DHT22;20984;43.508;1.504;2022-09-14T12:14:36;27.50;99.90
34766;DHT22;20984;43.508;1.504;2022-09-14T12:17:20;27.60;99.90
34766;DHT22;20984;43.508;1.504;2022-09-14T12:19:48;27.70;99.90
34766;DHT22;20984;43.508;1.504;2022-09-14T12:22:30;27.70;99.90
34766;DHT22;20984;43.508;1.504;2022-09-14T12:25:16;27.70;99.90
34766;DHT22;20984;43.508;1.504;2022-09-14T12:27:44;27.60;99.90
34766;DHT22;20984;43.508;1.504;2022-09-14T12:30:34;27.60;99.90
34766;DHT22;20984;43.508;1.504;2022-09-14T12:36:11;27.50;99.90
34766;DHT22;20984;43.508;1.504;2022-09-14T13:02:58;28.20;99.90
34766;DHT22;20984;43.508;1.504;2022-09-14T13:05:29;28.20;99.90
34766;DHT22;20984;43.508;1.504;2022-09-14T13:07:56;28.20;99.90
34766;DHT22;20984;43.508;1.504;2022-09-14T13:10:30;28.30;99.90
34766;DHT22;20984;43.508;1.504;2022-09-14T13:13:02;28.40;99.90
34766;DHT22;20984;43.508;1.504;2022-09-14T13:16:00;28.50;99.90
34766;DHT22;20984;43.508;1.504;2022-09-14T13:18:30;28.40;99.90
34766;DHT22;20984;43.508;1.504;2022-09-14T13:21:01;28.60;99.90
34766;DHT22;20984;43.508;1.504;2022-09-14T13:23:38;28.70;99.90
34766;DHT22;20984;43.508;1.504;2022-09-14T13:28:43;28.80;99.90
34766;DHT22;20984;43.508;1.504;2022-09-14T13:31:16;28.80;99.90
34766;DHT22;20984;43.508;1.504;2022-09-14T13:33:51;28.80;99.90
34766;DHT22;20984;43.508;1.504;2022-09-14T13:36:21;28.80;99.90
34766;DHT22;20984;43.508;1.504;2022-09-14T13:38:48;28.80;99.90
34766;DHT22;20984;43.508;1.504;2022-09-14T13:41:16;28.90;99.90
34766;DHT22;20984;43.508;1.504;2022-09-14T13:43:44;28.90;99.90
34766;DHT22;20984;43.508;1.504;2022-09-14T13:46:12;29.00;99.90
34766;DHT22;20984;43.508;1.504;2022-09-14T13:48:40;29.10;99.90
34766;DHT22;20984;43.508;1.504;2022-09-14T13:51:07;29.30;99.90
34766;DHT22;20984;43.508;1.504;2022-09-14T13:54:14;29.40;99.90
34766;DHT22;20984;43.508;1.504;2022-09-14T13:56:35;29.10;99.90
34766;DHT22;20984;43.508;1.504;2022-09-14T14:01:38;29.40;99.90
34766;DHT22;20984;43.508;1.504;2022-09-14T14:04:05;29.50;99.90
34766;DHT22;20984;43.508;1.504;2022-09-14T14:06:44;29.70;99.90
34766;DHT22;20984;43.508;1.504;2022-09-14T14:09:10;29.80;99.90
34766;DHT22;20984;43.508;1.504;2022-09-14T14:11:50;30.00;99.90
34766;DHT22;20984;43.508;1.504;2022-09-14T14:19:46;29.90;99.90
34766;DHT22;20984;43.508;1.504;2022-09-14T14:22:17;30.10;99.90
34766;DHT22;20984;43.508;1.504;2022-09-14T14:24:46;30.20;99.90
34766;DHT22;20984;43.508;1.504;2022-09-14T14:27:35;30.20;99.90
34766;DHT22;20984;43.508;1.504;2022-09-14T14:30:20;30.40;99.90
34766;DHT22;20984;43.508;1.504;2022-09-14T14:32:50;30.60;99.90
34766;DHT22;20984;43.508;1.504;2022-09-14T14:35:20;30.80;99.90
34766;DHT22;20984;43.508;1.504;2022-09-14T14:37:46;30.80;99.90
34766;DHT22;20984;43.508;1.504;2022-09-14T14:40:14;30.60;99.90
34766;DHT22;20984;43.508;1.504;2022-09-14T14:42:40;30.60;99.90
34766;DHT22;20984;43.508;1.504;2022-09-14T14:45:13;30.30;99.90
34766;DHT22;20984;43.508;1.504;2022-09-14T14:47:39;29.90;99.90
34766;DHT22;20984;43.508;1.504;2022-09-14T14:50:13;29.50;99.90
34766;DHT22;20984;43.508;1.504;2022-09-14T14:52:39;28.90;99.90
34766;DHT22;20984;43.508;1.504;2022-09-14T14:55:05;28.50;99.90
34766;DHT22;20984;43.508;1.504;2022-09-14T14:57:33;28.30;99.90
34766;DHT22;20984;43.508;1.504;2022-09-14T14:59:59;28.20;99.90
34766;DHT22;20984;43.508;1.504;2022-09-14T15:02:25;27.90;99.90
34766;DHT22;20984;43.508;1.504;2022-09-14T15:04:51;27.80;99.90
34766;DHT22;20984;43.508;1.504;2022-09-14T15:07:17;27.70;99.90
34766;DHT22;20984;43.508;1.504;2022-09-14T15:09:43;27.60;99.90
34766;DHT22;20984;43.508;1.504;2022-09-14T15:12:10;27.60;99.90
34766;DHT22;20984;43.508;1.504;2022-09-14T15:14:35;27.60;99.90
34766;DHT22;20984;43.508;1.504;2022-09-14T15:17:01;27.60;99.90
34766;DHT22;20984;43.508;1.504;2022-09-14T15:19:28;27.80;99.90
34766;DHT22;20984;43.508;1.504;2022-09-14T15:21:54;28.00;99.90
34766;DHT22;20984;43.508;1.504;2022-09-14T15:24:20;28.20;99.90
34766;DHT22;20984;43.508;1.504;2022-09-14T15:26:46;28.60;99.90
34766;DHT22;20984;43.508;1.504;2022-09-14T15:29:12;28.90;99.90
34766;DHT22;20984;43.508;1.504;2022-09-14T15:31:39;28.90;99.90
34766;DHT22;20984;43.508;1.504;2022-09-14T15:34:05;28.80;99.90
34766;DHT22;20984;43.508;1.504;2022-09-14T15:36:49;28.70;99.90
34766;DHT22;20984;43.508;1.504;2022-09-14T15:39:20;28.60;99.90
34766;DHT22;20984;43.508;1.504;2022-09-14T15:41:47;28.50;99.90
34766;DHT22;20984;43.508;1.504;2022-09-14T15:44:13;28.30;99.90
34766;DHT22;20984;43.508;1.504;2022-09-14T15:46:40;28.10;99.90
34766;DHT22;20984;43.508;1.504;2022-09-14T15:49:11;28.00;99.90
34766;DHT22;20984;43.508;1.504;2022-09-14T15:51:40;28.20;99.90
34766;DHT22;20984;43.508;1.504;2022-09-14T15:54:06;28.20;99.90
34766;DHT22;20984;43.508;1.504;2022-09-14T15:56:32;28.20;99.90
34766;DHT22;20984;43.508;1.504;2022-09-14T15:58:59;28.40;99.90
34766;DHT22;20984;43.508;1.504;2022-09-14T16:01:26;28.30;99.90
34766;DHT22;20984;43.508;1.504;2022-09-14T16:03:59;28.20;99.90
34766;DHT22;20984;43.508;1.504;2022-09-14T16:06:27;28.20;99.90
34766;DHT22;20984;43.508;1.504;2022-09-14T16:08:53;28.10;99.90
34766;DHT22;20984;43.508;1.504;2022-09-14T16:11:19;28.20;99.90
34766;DHT22;20984;43.508;1.504;2022-09-14T16:13:46;28.50;99.90
34766;DHT22;20984;43.508;1.504;2022-09-14T16:16:14;28.40;99.90
34766;DHT22;20984;43.508;1.504;2022-09-14T16:18:41;28.20;99.90
34766;DHT22;20984;43.508;1.504;2022-09-14T16:21:18;27.20;99.90
34766;DHT22;20984;43.508;1.504;2022-09-14T16:23:47;26.70;99.90
34766;DHT22;20984;43.508;1.504;2022-09-14T16:26:16;26.40;99.90
34766;DHT22;20984;43.508;1.504;2022-09-14T16:28:44;26.10;99.90
34766;DHT22;20984;43.508;1.504;2022-09-14T16:31:16;25.80;99.90
34766;DHT22;20984;43.508;1.504;2022-09-14T16:33:45;25.70;99.90
34766;DHT22;20984;43.508;1.504;2022-09-14T16:36:14;25.60;99.90
34766;DHT22;20984;43.508;1.504;2022-09-14T16:38:41;25.50;99.90
34766;DHT22;20984;43.508;1.504;2022-09-14T16:41:07;25.50;99.90
34766;DHT22;20984;43.508;1.504;2022-09-14T16:43:33;25.40;99.90
34766;DHT22;20984;43.508;1.504;2022-09-14T16:46:08;25.50;99.90
34766;DHT22;20984;43.508;1.504;2022-09-14T16:48:37;25.50;99.90
34766;DHT22;20984;43.508;1.504;2022-09-14T16:51:05;25.50;99.90
34766;DHT22;20984;43.508;1.504;2022-09-14T16:53:34;25.40;99.90
34766;DHT22;20984;43.508;1.504;2022-09-14T16:56:23;25.40;99.90
34766;DHT22;20984;43.508;1.504;2022-09-14T16:58:51;25.30;99.90
34766;DHT22;20984;43.508;1.504;2022-09-14T17:03:46;25.10;99.90
34766;DHT22;20984;43.508;1.504;2022-09-14T17:06:19;25.00;99.90
34766;DHT22;20984;43.508;1.504;2022-09-14T17:08:46;24.80;99.90
34766;DHT22;20984;43.508;1.504;2022-09-14T17:11:14;24.80;99.90
34766;DHT22;20984;43.508;1.504;2022-09-14T17:13:41;24.70;99.90
34766;DHT22;20984;43.508;1.504;2022-09-14T17:16:10;24.70;99.90
34766;DHT22;20984;43.508;1.504;2022-09-14T17:18:38;24.60;99.90
34766;DHT22;20984;43.508;1.504;2022-09-14T17:21:07;24.50;99.90
34766;DHT22;20984;43.508;1.504;2022-09-14T17:23:34;24.40;99.90
34766;DHT22;20984;43.508;1.504;2022-09-14T17:26:02;24.30;99.90
34766;DHT22;20984;43.508;1.504;2022-09-14T17:28:30;24.20;99.90
34766;DHT22;20984;43.508;1.504;2022-09-14T17:30:58;24.20;99.90
34766;DHT22;20984;43.508;1.504;2022-09-14T17:33:25;24.10;99.90
34766;DHT22;20984;43.508;1.504;2022-09-14T17:35:53;24.00;99.90
34766;DHT22;20984;43.508;1.504;2022-09-14T17:38:20;23.90;99.90
34766;DHT22;20984;43.508;1.504;2022-09-14T17:40:46;23.90;99.90
34766;DHT22;20984;43.508;1.504;2022-09-14T17:43:13;23.80;99.90
34766;DHT22;20984;43.508;1.504;2022-09-14T17:45:50;23.70;99.90
34766;DHT22;20984;43.508;1.504;2022-09-14T17:48:16;23.60;99.90
34766;DHT22;20984;43.508;1.504;2022-09-14T17:50:42;23.60;99.90
34766;DHT22;20984;43.508;1.504;2022-09-14T17:53:08;23.50;99.90
34766;DHT22;20984;43.508;1.504;2022-09-14T17:55:34;23.50;99.90
34766;DHT22;20984;43.508;1.504;2022-09-14T17:58:00;23.50;99.90
34766;DHT22;20984;43.508;1.504;2022-09-14T18:00:26;23.40;99.90
34766;DHT22;20984;43.508;1.504;2022-09-14T18:02:52;23.30;99.90
34766;DHT22;20984;43.508;1.504;2022-09-14T18:05:18;23.10;99.90